Terminal Aerodrome Forecast
Issued by NWS

Home | Current Version | Previous Version | Text Only | Print | Product List | Glossary On
Versions: 1 2 3 4 5 6 7 8 9 10 11 12 13 14 15 16 17
000
FTUS45 KVEF 052320
TAFVGT
TAF
KVGT 052320Z 0600/0624 23012KT P6SM VCSH FEW080 SCT120 BKN200
     FM060300 19008KT P6SM SCT120 BKN200
     FM060900 04005KT P6SM FEW120
     FM061800 16008KT P6SM SCT120=

USA.gov is the U.S. government's official web portal to all federal, state and local government web resources and services.